createdAt,value
2022-08-19T00:01:31.157Z,74.10
2022-08-19T00:03:59.406Z,74.00
2022-08-19T00:06:27.677Z,74.20
2022-08-19T00:08:54.486Z,73.80
2022-08-19T00:11:25.617Z,74.30
2022-08-19T00:13:53.397Z,74.20
2022-08-19T00:16:25.311Z,74.10
2022-08-19T00:18:54.532Z,74.20
2022-08-19T00:21:21.251Z,74.30
2022-08-19T00:23:48.109Z,74.20
2022-08-19T00:26:15.053Z,74.10
2022-08-19T00:28:42.153Z,74.10
2022-08-19T00:31:09.125Z,74.00
2022-08-19T00:33:36.001Z,74.40
2022-08-19T00:36:05.581Z,74.50
2022-08-19T00:38:37.517Z,74.50
2022-08-19T00:41:06.253Z,74.70
2022-08-19T00:43:33.025Z,74.80
2022-08-19T00:45:59.806Z,74.70
2022-08-19T00:48:26.554Z,74.70
2022-08-19T00:50:54.145Z,74.70
2022-08-19T00:53:22.719Z,74.60
2022-08-19T00:55:51.575Z,74.40
2022-08-19T00:58:21.149Z,74.40
2022-08-19T01:00:48.172Z,74.50
2022-08-19T01:03:19.155Z,74.50
2022-08-19T01:05:46.797Z,74.60
2022-08-19T01:08:14.574Z,74.50
2022-08-19T01:10:53.361Z,74.60
2022-08-19T01:13:22.129Z,74.80
2022-08-19T01:15:55.146Z,74.80
2022-08-19T01:18:21.883Z,74.90
2022-08-19T01:20:49.193Z,74.80
2022-08-19T01:23:16.068Z,74.80
2022-08-19T01:25:47.811Z,74.80
2022-08-19T01:28:39.875Z,74.70
2022-08-19T01:31:08.691Z,75.00
2022-08-19T01:33:35.559Z,75.20
2022-08-19T01:36:10.477Z,75.80
2022-08-19T01:38:44.319Z,75.90
2022-08-19T01:41:12.600Z,75.90
2022-08-19T01:43:39.567Z,75.40
2022-08-19T01:46:26.258Z,75.60
2022-08-19T01:48:53.068Z,75.70
2022-08-19T01:51:19.820Z,75.70
2022-08-19T01:53:49.114Z,75.70
2022-08-19T01:56:16.203Z,75.60
2022-08-19T01:58:59.281Z,75.70
2022-08-19T02:01:26.099Z,75.70
2022-08-19T02:03:59.367Z,75.70
2022-08-19T02:06:26.936Z,75.80
2022-08-19T02:08:57.347Z,75.80
2022-08-19T02:11:31.105Z,75.70
2022-08-19T02:13:58.244Z,75.70
2022-08-19T02:16:25.109Z,75.80
2022-08-19T02:18:52.160Z,75.90
2022-08-19T02:21:19.551Z,75.90
2022-08-19T02:23:46.513Z,76.00
2022-08-19T02:26:13.525Z,76.20
2022-08-19T02:28:41.069Z,76.20
2022-08-19T02:31:12.374Z,76.10
2022-08-19T02:33:39.200Z,76.10
2022-08-19T02:36:06.799Z,76.10
2022-08-19T02:38:33.581Z,75.80
2022-08-19T02:41:01.947Z,76.00
2022-08-19T02:43:29.611Z,75.90
2022-08-19T02:46:01.283Z,75.80
2022-08-19T02:48:28.057Z,76.00
2022-08-19T02:50:56.356Z,76.00
2022-08-19T02:53:24.229Z,76.20
2022-08-19T02:55:51.738Z,76.10
2022-08-19T02:58:18.701Z,76.10
2022-08-19T03:00:49.406Z,76.30
2022-08-19T03:03:16.709Z,76.40
2022-08-19T03:05:56.137Z,76.50
2022-08-19T03:08:24.100Z,76.40
2022-08-19T03:10:52.747Z,76.20
2022-08-19T03:13:19.512Z,76.10
2022-08-19T03:15:47.204Z,76.10
2022-08-19T03:18:14.023Z,76.30
2022-08-19T03:20:45.736Z,76.30
2022-08-19T03:23:13.670Z,76.50
2022-08-19T03:25:42.040Z,76.60
2022-08-19T03:28:08.781Z,76.60
2022-08-19T03:30:35.598Z,76.50
2022-08-19T03:33:02.794Z,76.60
2022-08-19T03:35:32.235Z,76.40
2022-08-19T03:38:00.241Z,76.50
2022-08-19T03:40:27.341Z,76.70
2022-08-19T03:42:54.055Z,76.70
2022-08-19T03:45:23.414Z,77.00
2022-08-19T03:47:50.253Z,77.30
2022-08-19T03:50:17.506Z,77.80
2022-08-19T03:52:47.749Z,77.80
2022-08-19T03:55:14.725Z,77.60
2022-08-19T03:57:41.599Z,78.40
2022-08-19T04:00:13.634Z,78.60
2022-08-19T04:02:42.864Z,78.70
2022-08-19T04:05:27.734Z,79.20
2022-08-19T04:07:54.939Z,79.40
2022-08-19T04:10:21.646Z,79.30
2022-08-19T04:12:48.446Z,79.10
2022-08-19T04:15:16.438Z,79.30
2022-08-19T04:17:43.546Z,79.80
2022-08-19T04:20:11.007Z,79.70
2022-08-19T04:22:37.881Z,79.30
2022-08-19T04:25:04.842Z,79.40
2022-08-19T04:27:32.416Z,80.00
2022-08-19T04:29:59.124Z,80.20
2022-08-19T04:32:25.925Z,80.50
2022-08-19T04:35:02.229Z,80.70
2022-08-19T04:37:39.381Z,81.00
2022-08-19T04:40:25.997Z,81.10
2022-08-19T04:42:52.956Z,81.10
2022-08-19T04:45:19.948Z,81.00
2022-08-19T04:47:58.136Z,81.20
2022-08-19T04:50:27.044Z,82.50
2022-08-19T04:52:54.332Z,81.60
2022-08-19T04:55:21.298Z,81.70
2022-08-19T04:57:48.034Z,81.80
2022-08-19T05:00:14.968Z,81.90
2022-08-19T05:02:41.760Z,81.90
2022-08-19T05:05:08.683Z,82.00
2022-08-19T05:07:35.611Z,81.90
2022-08-19T05:10:03.478Z,81.90
2022-08-19T05:12:30.183Z,82.80
2022-08-19T05:14:58.291Z,82.00
2022-08-19T05:17:28.016Z,82.10
2022-08-19T05:20:15.226Z,82.30
2022-08-19T05:22:43.087Z,82.40
2022-08-19T05:25:13.880Z,82.50
2022-08-19T05:27:42.045Z,82.60
2022-08-19T05:30:09.345Z,82.70
2022-08-19T05:32:36.074Z,82.80
2022-08-19T05:35:02.893Z,82.80
2022-08-19T05:37:29.657Z,83.10
2022-08-19T05:39:56.662Z,83.10
2022-08-19T05:42:24.089Z,83.40
2022-08-19T05:44:51.389Z,83.60
2022-08-19T05:47:19.789Z,83.60
2022-08-19T05:49:46.566Z,83.60
2022-08-19T05:52:14.466Z,83.70
2022-08-19T05:54:51.110Z,83.80
2022-08-19T05:57:20.524Z,83.80
2022-08-19T05:59:49.424Z,84.80
2022-08-19T06:02:23.535Z,84.20
2022-08-19T06:04:50.568Z,84.20
2022-08-19T06:07:17.908Z,84.10
2022-08-19T06:09:54.327Z,84.10
2022-08-19T06:12:31.625Z,84.00
2022-08-19T06:15:01.081Z,83.90
2022-08-19T06:17:31.066Z,84.10
2022-08-19T06:19:59.705Z,84.20
2022-08-19T06:22:26.769Z,84.10
2022-08-19T06:24:54.837Z,84.40
2022-08-19T06:27:22.031Z,84.70
2022-08-19T06:29:48.781Z,84.80
2022-08-19T06:32:17.250Z,84.70
2022-08-19T06:34:44.088Z,84.50
2022-08-19T06:37:11.737Z,84.40
2022-08-19T06:39:39.638Z,84.90
2022-08-19T06:42:09.097Z,85.40
2022-08-19T06:44:42.605Z,86.00
2022-08-19T06:47:14.611Z,86.60
2022-08-19T06:49:42.291Z,87.10
2022-08-19T06:52:09.400Z,87.70
2022-08-19T06:54:55.865Z,87.90
2022-08-19T06:57:24.431Z,87.60
2022-08-19T06:59:51.358Z,87.20
2022-08-19T07:04:52.632Z,87.80
2022-08-19T07:07:21.871Z,88.60
2022-08-19T07:09:51.756Z,90.00
2022-08-19T07:12:25.398Z,90.30
2022-08-19T07:14:53.723Z,90.40
2022-08-19T07:17:21.799Z,90.70
2022-08-19T07:19:48.657Z,90.70
2022-08-19T07:22:15.932Z,91.00
2022-08-19T07:24:51.177Z,91.50
2022-08-19T07:27:18.524Z,91.50
2022-08-19T07:29:57.166Z,91.90
2022-08-19T07:32:27.823Z,92.10
2022-08-19T07:34:55.273Z,92.30
2022-08-19T07:37:23.692Z,92.40
2022-08-19T07:39:50.444Z,92.60
2022-08-19T07:42:18.450Z,93.00
2022-08-19T07:44:50.318Z,92.90
2022-08-19T07:47:47.415Z,92.40
2022-08-19T07:50:08.003Z,92.00
2022-08-19T07:52:36.994Z,91.70
2022-08-19T07:55:05.013Z,91.70
2022-08-19T07:57:31.818Z,91.90
2022-08-19T07:59:58.618Z,91.30
2022-08-19T08:02:25.504Z,91.20
2022-08-19T08:05:10.731Z,91.10
2022-08-19T08:07:56.130Z,91.00
2022-08-19T08:10:24.178Z,90.90
2022-08-19T08:13:08.736Z,91.00
2022-08-19T08:15:43.308Z,90.70
2022-08-19T08:18:11.858Z,90.80
2022-08-19T08:20:38.923Z,90.80
2022-08-19T08:23:23.603Z,90.90
2022-08-19T08:25:50.588Z,91.10
2022-08-19T08:28:18.249Z,90.80
2022-08-19T08:30:46.735Z,90.50
2022-08-19T08:35:46.659Z,90.20
2022-08-19T08:38:13.667Z,90.20
2022-08-19T08:40:49.709Z,89.90
2022-08-19T08:43:35.160Z,89.70
2022-08-19T08:46:06.017Z,89.30
2022-08-19T08:48:43.143Z,88.70
2022-08-19T08:51:15.985Z,88.00
2022-08-19T08:53:47.863Z,88.00
2022-08-19T08:56:16.994Z,87.30
2022-08-19T08:58:59.910Z,86.90
2022-08-19T09:01:30.149Z,86.60
2022-08-19T09:03:57.713Z,86.50
2022-08-19T09:06:57.473Z,86.80
2022-08-19T09:09:32.061Z,86.70
2022-08-19T09:12:15.702Z,86.30
2022-08-19T09:14:59.630Z,86.80
2022-08-19T09:17:31.864Z,86.70
2022-08-19T09:20:09.577Z,86.20
2022-08-19T09:22:37.697Z,86.80
2022-08-19T09:25:05.893Z,86.50
2022-08-19T09:27:42.440Z,85.90
2022-08-19T09:30:40.350Z,86.20
2022-08-19T09:33:07.294Z,86.60
2022-08-19T09:35:49.535Z,86.20
2022-08-19T09:38:19.799Z,86.10
2022-08-19T09:40:46.691Z,86.00
2022-08-19T09:43:13.680Z,85.80
2022-08-19T09:45:40.812Z,85.40
2022-08-19T09:48:07.543Z,84.40
2022-08-19T09:50:37.249Z,85.00
2022-08-19T09:53:04.373Z,84.60
2022-08-19T09:55:33.625Z,83.90
2022-08-19T09:58:02.030Z,84.20
2022-08-19T10:00:29.084Z,83.50
2022-08-19T10:02:55.818Z,83.20
2022-08-19T10:05:42.485Z,83.10
2022-08-19T10:08:13.528Z,82.40
2022-08-19T10:10:47.251Z,82.40
2022-08-19T10:13:15.379Z,82.30
2022-08-19T10:15:47.571Z,82.50
2022-08-19T10:18:19.230Z,82.20
2022-08-19T10:20:51.415Z,81.90
2022-08-19T10:23:20.100Z,82.00
2022-08-19T10:25:46.857Z,82.10
2022-08-19T10:28:14.997Z,82.40
2022-08-19T10:30:42.857Z,82.00
2022-08-19T10:33:11.289Z,81.50
2022-08-19T10:35:56.442Z,82.30
2022-08-19T10:38:31.318Z,83.00
2022-08-19T10:40:59.555Z,83.40
2022-08-19T10:43:26.411Z,83.60
2022-08-19T10:45:56.579Z,83.00
2022-08-19T10:48:23.380Z,82.70
2022-08-19T10:51:08.868Z,82.40
2022-08-19T10:53:35.621Z,82.00
2022-08-19T10:56:21.518Z,81.40
2022-08-19T10:58:49.659Z,81.20
2022-08-19T11:01:16.512Z,81.20
2022-08-19T11:03:43.415Z,80.50
2022-08-19T11:06:11.369Z,81.00
2022-08-19T11:08:38.736Z,81.70
2022-08-19T11:11:06.309Z,80.90
2022-08-19T11:13:37.027Z,81.10
2022-08-19T11:16:14.256Z,81.10
2022-08-19T11:18:46.183Z,81.20
2022-08-19T11:21:20.079Z,82.10
2022-08-19T11:23:48.032Z,82.70
2022-08-19T11:26:15.649Z,82.60
2022-08-19T11:28:42.470Z,82.90
2022-08-19T11:31:17.959Z,83.30
2022-08-19T11:33:48.151Z,83.60
2022-08-19T11:36:15.370Z,84.10
2022-08-19T11:38:42.674Z,84.10
2022-08-19T11:41:09.534Z,83.90
2022-08-19T11:43:37.896Z,85.00
2022-08-19T11:46:08.860Z,84.00
2022-08-19T11:48:36.025Z,83.20
2022-08-19T11:51:07.114Z,83.60
2022-08-19T11:53:34.183Z,83.10
2022-08-19T11:56:01.112Z,83.10
2022-08-19T11:58:27.832Z,83.50
2022-08-19T12:00:54.601Z,83.70
2022-08-19T12:03:21.423Z,83.80
2022-08-19T12:05:48.167Z,84.00
2022-08-19T12:08:16.113Z,84.20
2022-08-19T12:10:43.258Z,84.30
2022-08-19T12:13:10.896Z,84.30
2022-08-19T12:15:38.710Z,84.50
2022-08-19T12:18:05.812Z,83.20
2022-08-19T12:20:33.563Z,82.80
2022-08-19T12:23:03.687Z,83.30
2022-08-19T12:25:33.678Z,83.30
2022-08-19T12:28:00.745Z,83.30
2022-08-19T12:30:27.576Z,83.30
2022-08-19T12:32:54.543Z,83.70
2022-08-19T12:35:22.103Z,84.50
2022-08-19T12:37:56.594Z,84.20
2022-08-19T12:40:26.446Z,84.90
2022-08-19T12:42:54.302Z,85.40
2022-08-19T12:45:21.033Z,85.70
2022-08-19T12:47:49.636Z,86.30
2022-08-19T12:50:16.627Z,86.90
2022-08-19T12:52:43.510Z,87.60
2022-08-19T12:55:10.581Z,88.10
2022-08-19T12:57:37.345Z,88.20
2022-08-19T13:00:13.505Z,88.40
2022-08-19T13:02:46.554Z,87.80
2022-08-19T13:05:16.763Z,87.50
2022-08-19T13:07:44.881Z,87.80
2022-08-19T13:10:13.378Z,87.70
2022-08-19T13:12:40.278Z,87.80
2022-08-19T13:15:10.823Z,88.80
2022-08-19T13:17:38.318Z,89.00
2022-08-19T13:20:07.489Z,89.50
2022-08-19T13:22:34.246Z,89.60
2022-08-19T13:25:01.020Z,89.70
2022-08-19T13:27:27.910Z,90.30
2022-08-19T13:30:12.847Z,90.50
2022-08-19T13:32:58.058Z,90.50
2022-08-19T13:35:24.867Z,90.40
2022-08-19T13:37:51.628Z,90.50
2022-08-19T13:40:21.124Z,90.20
2022-08-19T13:42:48.862Z,90.00
2022-08-19T13:45:17.555Z,89.80
2022-08-19T13:47:46.212Z,90.00
2022-08-19T13:50:14.407Z,88.50
2022-08-19T13:52:41.356Z,87.40
2022-08-19T13:55:08.895Z,86.20
2022-08-19T13:57:35.727Z,86.40
2022-08-19T14:00:03.247Z,86.50
2022-08-19T14:02:30.034Z,86.70
2022-08-19T14:04:56.753Z,86.10
2022-08-19T14:07:25.139Z,85.70
2022-08-19T14:09:51.992Z,85.60
2022-08-19T14:12:28.339Z,85.40
2022-08-19T14:14:56.060Z,85.20
2022-08-19T14:17:22.948Z,84.90
2022-08-19T14:19:49.816Z,84.70
2022-08-19T14:22:22.411Z,83.80
2022-08-19T14:24:49.384Z,84.10
2022-08-19T14:27:16.110Z,84.20
2022-08-19T14:29:42.919Z,84.90
2022-08-19T14:32:11.111Z,83.70
2022-08-19T14:34:43.454Z,83.50
2022-08-19T14:37:14.401Z,82.60
2022-08-19T14:39:45.612Z,82.00
2022-08-19T14:42:12.717Z,81.40
2022-08-19T14:44:39.508Z,81.40
2022-08-19T14:47:07.955Z,81.70
2022-08-19T14:49:42.234Z,82.20
2022-08-19T14:52:10.676Z,82.80
2022-08-19T14:54:37.467Z,83.50
2022-08-19T14:57:04.436Z,82.90
2022-08-19T14:59:31.177Z,82.80
2022-08-19T15:01:58.015Z,83.20
2022-08-19T15:04:24.798Z,83.30
2022-08-19T15:06:51.847Z,82.90
2022-08-19T15:09:18.638Z,82.20
2022-08-19T15:11:45.363Z,82.20
2022-08-19T15:14:12.164Z,82.20
2022-08-19T15:16:42.679Z,82.20
2022-08-19T15:19:09.585Z,81.90
2022-08-19T15:21:37.589Z,82.80
2022-08-19T15:24:05.937Z,81.70
2022-08-19T15:26:33.345Z,81.10
2022-08-19T15:29:01.283Z,80.20
2022-08-19T15:31:29.121Z,80.20
2022-08-19T15:33:58.209Z,79.70
2022-08-19T15:36:26.276Z,79.50
2022-08-19T15:38:53.340Z,80.00
2022-08-19T15:41:23.656Z,79.60
2022-08-19T15:43:59.670Z,79.60
2022-08-19T15:46:28.291Z,79.20
2022-08-19T15:48:57.253Z,78.80
2022-08-19T15:51:27.210Z,79.20
2022-08-19T15:53:54.149Z,79.30
2022-08-19T15:56:24.473Z,79.00
2022-08-19T15:59:11.994Z,79.70
2022-08-19T16:01:57.238Z,79.00
2022-08-19T16:04:42.303Z,78.50
2022-08-19T16:07:10.307Z,78.40
2022-08-19T16:09:37.177Z,78.10
2022-08-19T16:12:05.031Z,78.20
2022-08-19T16:14:33.055Z,78.10
2022-08-19T16:16:59.839Z,77.70
2022-08-19T16:19:26.636Z,77.60
2022-08-19T16:21:54.233Z,77.60
2022-08-19T16:24:22.503Z,77.50
2022-08-19T16:26:49.585Z,77.50
2022-08-19T16:29:25.814Z,77.40
2022-08-19T16:32:05.100Z,77.50
2022-08-19T16:34:31.925Z,77.40
2022-08-19T16:37:00.359Z,77.60
2022-08-19T16:39:27.107Z,77.50
2022-08-19T16:41:53.945Z,77.40
2022-08-19T16:44:21.078Z,76.80
2022-08-19T16:46:55.720Z,76.80
2022-08-19T16:49:53.184Z,76.50
2022-08-19T16:52:14.802Z,76.20
2022-08-19T16:54:41.863Z,75.50
2022-08-19T16:57:11.964Z,74.90
2022-08-19T16:59:48.251Z,75.10
2022-08-19T17:02:15.414Z,75.40
2022-08-19T17:04:42.173Z,75.70
2022-08-19T17:07:10.062Z,75.70
2022-08-19T17:09:37.079Z,76.00
2022-08-19T17:12:05.012Z,76.10
2022-08-19T17:14:31.763Z,76.20
2022-08-19T17:16:58.512Z,76.00
2022-08-19T17:19:25.245Z,75.90
2022-08-19T17:21:52.322Z,75.90
2022-08-19T17:24:19.105Z,75.70
2022-08-19T17:26:45.941Z,75.70
2022-08-19T17:29:12.750Z,75.70
2022-08-19T17:31:39.542Z,75.60
2022-08-19T17:34:06.334Z,75.60
2022-08-19T17:36:35.929Z,75.60
2022-08-19T17:39:04.089Z,75.60
2022-08-19T17:41:31.213Z,75.70
2022-08-19T17:43:58.084Z,75.60
2022-08-19T17:46:24.867Z,75.60
2022-08-19T17:48:55.179Z,75.60
2022-08-19T17:51:32.430Z,75.50
2022-08-19T17:53:59.417Z,75.60
2022-08-19T17:56:28.699Z,75.50
2022-08-19T17:58:59.939Z,75.40
2022-08-19T18:01:28.829Z,75.30
2022-08-19T18:04:12.675Z,75.40
2022-08-19T18:06:41.607Z,75.50
2022-08-19T18:09:13.695Z,75.60
2022-08-19T18:11:40.454Z,75.70
2022-08-19T18:14:07.237Z,75.60
2022-08-19T18:16:33.989Z,75.60
2022-08-19T18:19:01.156Z,75.70
2022-08-19T18:21:31.829Z,75.60
2022-08-19T18:24:01.748Z,75.70
2022-08-19T18:26:30.253Z,75.90
2022-08-19T18:28:57.264Z,75.80
2022-08-19T18:31:24.048Z,76.10
2022-08-19T18:33:52.642Z,75.90
2022-08-19T18:36:37.372Z,76.00
2022-08-19T18:39:25.410Z,75.90
2022-08-19T18:42:14.571Z,76.00
2022-08-19T18:45:10.264Z,75.70
2022-08-19T18:47:56.017Z,75.80
2022-08-19T18:50:22.965Z,75.60
2022-08-19T18:52:49.660Z,75.40
2022-08-19T18:55:18.161Z,75.60
2022-08-19T18:57:44.995Z,75.70
2022-08-19T19:00:12.925Z,75.50
2022-08-19T19:02:41.152Z,75.80
2022-08-19T19:05:08.116Z,75.90
2022-08-19T19:07:35.096Z,76.00
2022-08-19T19:10:02.133Z,75.80
2022-08-19T19:12:29.686Z,75.80
2022-08-19T19:14:58.508Z,75.70
2022-08-19T19:17:28.531Z,75.00
2022-08-19T19:19:55.356Z,75.50
2022-08-19T19:22:22.375Z,75.30
2022-08-19T19:24:49.145Z,75.30
2022-08-19T19:27:16.261Z,75.40
2022-08-19T19:29:42.967Z,75.50
2022-08-19T19:32:11.498Z,75.60
2022-08-19T19:34:38.681Z,75.60
2022-08-19T19:37:05.489Z,75.80
2022-08-19T19:39:45.722Z,75.90
2022-08-19T19:42:19.917Z,75.70
2022-08-19T19:44:48.779Z,75.60
2022-08-19T19:47:17.429Z,75.60
2022-08-19T19:50:10.818Z,75.70
2022-08-19T19:52:32.656Z,75.70
2022-08-19T19:54:59.845Z,76.70
2022-08-19T19:57:26.906Z,75.90
2022-08-19T19:59:54.341Z,76.00
2022-08-19T20:02:22.004Z,75.80
2022-08-19T20:04:51.132Z,75.80
2022-08-19T20:07:17.975Z,76.20
2022-08-19T20:09:59.349Z,76.20
2022-08-19T20:12:26.322Z,76.20
2022-08-19T20:14:53.034Z,76.30
2022-08-19T20:17:20.679Z,76.30
2022-08-19T20:19:48.041Z,76.40
2022-08-19T20:22:15.483Z,76.40
2022-08-19T20:24:42.633Z,76.50
2022-08-19T20:27:10.730Z,76.60
2022-08-19T20:29:40.488Z,76.60
2022-08-19T20:32:11.134Z,76.70
2022-08-19T20:34:38.951Z,76.70
2022-08-19T20:37:05.735Z,76.70
2022-08-19T20:39:32.527Z,76.80
2022-08-19T20:42:00.740Z,76.80
2022-08-19T20:44:27.510Z,76.90
2022-08-19T20:46:56.759Z,77.00
2022-08-19T20:49:27.103Z,77.10
2022-08-19T20:51:55.326Z,77.10
2022-08-19T20:54:22.206Z,77.20
2022-08-19T20:56:48.935Z,77.20
2022-08-19T20:59:15.710Z,77.20
2022-08-19T21:01:42.466Z,77.30
2022-08-19T21:04:09.174Z,77.10
2022-08-19T21:06:36.014Z,77.30
2022-08-19T21:09:02.746Z,77.40
2022-08-19T21:11:29.488Z,77.70
2022-08-19T21:13:56.992Z,77.70
2022-08-19T21:16:23.700Z,77.80
2022-08-19T21:18:50.421Z,77.80
2022-08-19T21:21:17.200Z,77.80
2022-08-19T21:23:44.136Z,77.80
2022-08-19T21:26:11.034Z,77.80
2022-08-19T21:28:37.836Z,77.90
2022-08-19T21:31:05.654Z,78.00
2022-08-19T21:33:32.891Z,78.30
2022-08-19T21:36:00.147Z,78.60
2022-08-19T21:38:27.144Z,79.00
2022-08-19T21:40:53.871Z,79.70
2022-08-19T21:43:20.683Z,79.70
2022-08-19T21:45:47.690Z,79.90
2022-08-19T21:48:14.837Z,80.20
2022-08-19T21:50:42.657Z,80.30
2022-08-19T21:53:17.696Z,80.70
2022-08-19T21:55:46.617Z,80.80
2022-08-19T21:58:20.126Z,80.90
2022-08-19T22:00:56.816Z,80.70
2022-08-19T22:03:23.774Z,80.60
2022-08-19T22:05:50.782Z,80.50
2022-08-19T22:08:17.525Z,80.40
2022-08-19T22:10:44.221Z,80.30
2022-08-19T22:13:13.324Z,80.30
2022-08-19T22:15:42.253Z,81.10
2022-08-19T22:18:08.964Z,80.50
2022-08-19T22:20:35.703Z,80.50
2022-08-19T22:23:04.145Z,80.40
2022-08-19T22:25:33.060Z,80.20
2022-08-19T22:28:01.545Z,80.10
2022-08-19T22:30:33.134Z,80.20
2022-08-19T22:33:01.298Z,80.30
2022-08-19T22:35:31.409Z,80.30
2022-08-19T22:37:59.264Z,80.30
2022-08-19T22:40:27.210Z,80.30
2022-08-19T22:43:02.212Z,80.30
2022-08-19T22:45:29.184Z,80.40
2022-08-19T22:47:56.113Z,80.20
2022-08-19T22:50:23.215Z,80.50
2022-08-19T22:52:51.832Z,80.40
2022-08-19T22:55:18.840Z,80.50
2022-08-19T22:57:45.618Z,80.40
2022-08-19T23:00:13.589Z,80.50
2022-08-19T23:02:51.686Z,80.40
2022-08-19T23:05:21.794Z,80.60
2022-08-19T23:07:52.202Z,80.60
2022-08-19T23:10:27.593Z,80.50
2022-08-19T23:12:55.994Z,80.30
2022-08-19T23:15:25.694Z,80.40
2022-08-19T23:17:54.004Z,80.40
2022-08-19T23:20:21.066Z,80.20
2022-08-19T23:22:49.579Z,80.10
2022-08-19T23:25:18.386Z,80.00
2022-08-19T23:28:03.999Z,79.70
2022-08-19T23:30:31.229Z,79.40
2022-08-19T23:33:06.946Z,79.50
2022-08-19T23:35:37.745Z,79.70
2022-08-19T23:38:06.228Z,79.60
2022-08-19T23:40:33.871Z,79.30
2022-08-19T23:43:02.806Z,79.30
2022-08-19T23:45:38.191Z,79.50
2022-08-19T23:48:06.438Z,79.50
2022-08-19T23:50:33.194Z,79.40
2022-08-19T23:53:00.249Z,79.60
2022-08-19T23:55:31.948Z,79.70
2022-08-19T23:57:59.120Z,79.80
